Time;durP1;ratioP1;P1;durP2;ratioP2;P2;SDS_P1;SDS_P2;PMS_P1;PMS_P2;Temp;Humidity;BMP_temperature;BMP_pressure;BME280_temperature;BME280_humidity;BME280_pressure;Samples;Min_cycle;Max_cycle;Signal;HPM_P1;HPM_P2
2022/03/03 00:02:08;;;;;;;30.05;8.40;;;;;;;-3.68;61.82;99587.13;5017345;28;20106;-65
2022/03/03 00:04:34;;;;;;;25.17;9.18;;;;;;;-3.59;60.83;99580.59;5017178;28;20068;-64
2022/03/03 00:07:00;;;;;;;23.73;8.88;;;;;;;-3.58;59.81;99580.53;5000959;28;20063;-65
2022/03/03 00:09:25;;;;;;;33.95;8.57;;;;;;;-3.51;59.42;99581.13;5017578;28;20119;-63
2022/03/03 00:11:51;;;;;;;33.45;9.77;;;;;;;-3.52;59.55;99571.47;5018427;28;20049;-65
2022/03/03 00:14:17;;;;;;;32.22;9.40;;;;;;;-3.72;58.75;99536.22;4985708;28;20110;-65
2022/03/03 00:16:43;;;;;;;24.52;9.10;;;;;;;-3.54;58.82;99555.72;5018045;28;20057;-65
2022/03/03 00:19:09;;;;;;;24.10;9.60;;;;;;;-3.52;58.17;99566.19;5017258;28;20424;-63
2022/03/03 00:21:35;;;;;;;32.30;10.50;;;;;;;-3.60;59.63;99558.59;5001716;28;20136;-65
2022/03/03 00:24:00;;;;;;;31.45;10.48;;;;;;;-3.61;59.61;99556.91;5034147;28;20130;-65
2022/03/03 00:26:26;;;;;;;27.85;8.82;;;;;;;-3.91;59.33;99501.81;5017970;28;20049;-66
2022/03/03 00:28:52;;;;;;;27.60;8.25;;;;;;;-3.67;58.37;99552.72;5000490;28;20075;-66
2022/03/03 00:31:18;;;;;;;30.27;8.88;;;;;;;-3.72;59.63;99549.41;5016180;28;20053;-65
2022/03/03 00:33:45;;;;;;;29.55;10.27;;;;;;;-3.70;58.76;99552.84;4983678;28;20063;-63
2022/03/03 00:36:11;;;;;;;30.83;9.38;;;;;;;-3.74;58.96;99543.31;4999980;28;20119;-63
2022/03/03 00:38:37;;;;;;;33.38;10.82;;;;;;;-3.77;59.12;99540.81;5032199;28;20497;-64
2022/03/03 00:41:03;;;;;;;28.13;8.93;;;;;;;-3.80;59.01;99535.69;4999443;28;20049;-64
2022/03/03 00:43:29;;;;;;;28.92;9.10;;;;;;;-3.82;59.14;99531.38;4999796;28;20140;-66
2022/03/03 00:45:54;;;;;;;29.38;9.55;;;;;;;-3.86;59.11;99529.78;4999818;28;20107;-65
2022/03/03 00:48:20;;;;;;;29.45;9.25;;;;;;;-3.84;58.63;99533.22;5015861;28;20049;-65
2022/03/03 00:50:46;;;;;;;26.38;9.02;;;;;;;-4.02;58.69;99504.03;5016329;28;20088;-65
2022/03/03 00:53:12;;;;;;;24.65;8.90;;;;;;;-3.94;59.21;99516.91;5048733;28;20079;-64
2022/03/03 00:55:38;;;;;;;35.72;9.55;;;;;;;-3.98;59.42;99516.19;4999570;28;20384;-64
2022/03/03 00:58:04;;;;;;;25.20;8.40;;;;;;;-4.03;59.38;99507.56;5015708;28;20457;-64
2022/03/03 01:00:31;;;;;;;32.72;9.18;;;;;;;-4.01;59.77;99510.16;4999558;28;20056;-65
2022/03/03 01:02:57;;;;;;;24.38;8.75;;;;;;;-4.01;58.69;99511.03;5031338;28;20063;-65
2022/03/03 01:05:23;;;;;;;21.75;8.27;;;;;;;-3.94;58.31;99514.28;4998613;28;20051;-65
2022/03/03 01:07:49;;;;;;;24.40;8.68;;;;;;;-3.96;58.54;99510.81;5015172;28;20135;-64
2022/03/03 01:10:15;;;;;;;32.25;8.10;;;;;;;-3.99;59.10;99508.31;4982418;28;20481;-63
2022/03/03 01:12:41;;;;;;;25.67;9.50;;;;;;;-4.10;60.02;99505.25;5031717;28;20140;-65
2022/03/03 01:15:09;;;;;;;24.20;9.80;;;;;;;-4.36;61.31;99484.28;5015389;28;20048;-65
2022/03/03 01:17:35;;;;;;;27.25;9.13;;;;;;;-4.31;61.24;99510.50;5015131;28;20063;-65
2022/03/03 01:20:01;;;;;;;27.85;9.52;;;;;;;-4.41;62.33;99506.50;4998770;28;20064;-66
2022/03/03 01:22:28;;;;;;;34.00;9.68;;;;;;;-4.44;62.56;99509.25;5032166;28;20057;-64
2022/03/03 01:24:54;;;;;;;27.35;10.23;;;;;;;-4.53;62.80;99504.34;5032169;28;20053;-65
2022/03/03 01:27:20;;;;;;;27.67;8.88;;;;;;;-4.51;62.63;99506.00;5000529;28;20048;-66
2022/03/03 01:29:46;;;;;;;23.73;7.93;;;;;;;-4.57;63.17;99489.56;4999853;28;20556;-66
2022/03/03 01:32:12;;;;;;;33.47;9.38;;;;;;;-4.54;62.36;99489.44;5016345;28;20138;-63
2022/03/03 01:34:38;;;;;;;24.45;9.25;;;;;;;-4.72;63.45;99470.78;5048433;28;20044;-63
2022/03/03 01:37:04;;;;;;;22.08;8.48;;;;;;;-4.61;63.73;99486.16;5015355;28;20056;-65
2022/03/03 01:39:30;;;;;;;26.63;9.63;;;;;;;-4.64;63.62;99489.81;4998934;28;20102;-64
2022/03/03 01:41:57;;;;;;;23.90;9.13;;;;;;;-4.65;63.57;99482.78;5014939;28;20045;-65
2022/03/03 01:44:23;;;;;;;25.85;8.32;;;;;;;-4.60;63.00;99474.72;5014618;28;20060;-65
2022/03/03 01:46:57;;;;;;;22.15;7.90;;;;;;;-4.59;62.93;99475.59;5015421;28;20054;-65
2022/03/03 01:49:24;;;;;;;21.52;7.68;;;;;;;-4.62;63.16;99461.59;5015052;28;20057;-66
2022/03/03 01:51:50;;;;;;;24.95;8.63;;;;;;;-4.68;63.12;99453.94;4998676;28;20049;-63
2022/03/03 01:54:16;;;;;;;26.10;8.07;;;;;;;-4.67;63.04;99453.00;4998615;28;20136;-64
2022/03/03 01:56:42;;;;;;;23.58;8.57;;;;;;;-4.73;63.55;99450.59;5048100;28;20112;-64
2022/03/03 01:59:09;;;;;;;23.92;8.13;;;;;;;-4.70;63.32;99457.53;5015165;28;20056;-64
2022/03/03 02:01:36;;;;;;;22.02;7.82;;;;;;;-4.74;62.68;99446.25;4998827;28;20139;-64
2022/03/03 02:04:05;;;;;;;23.38;7.90;;;;;;;-4.78;63.44;99439.41;5015182;28;20080;-65
2022/03/03 02:06:31;;;;;;;21.98;8.25;;;;;;;-4.78;63.19;99438.53;5015776;28;20455;-65
2022/03/03 02:08:57;;;;;;;20.30;8.07;;;;;;;-4.75;62.94;99444.56;4999443;28;20577;-64
2022/03/03 02:11:24;;;;;;;28.55;8.55;;;;;;;-4.79;62.59;99456.13;5031678;28;20053;-65
2022/03/03 02:13:50;;;;;;;21.23;7.95;;;;;;;-4.82;63.25;99443.06;4999247;28;20144;-64
2022/03/03 02:16:16;;;;;;;24.92;9.98;;;;;;;-4.89;62.89;99447.72;5032485;28;20060;-66
2022/03/03 02:18:42;;;;;;;21.92;8.30;;;;;;;-4.96;63.43;99450.66;5031256;28;20512;-65
2022/03/03 02:21:15;;;;;;;21.58;8.45;;;;;;;-5.16;64.08;99412.72;4998927;28;20049;-65
2022/03/03 02:23:42;;;;;;;23.52;7.70;;;;;;;-5.01;63.23;99431.50;5031055;28;20457;-63
2022/03/03 02:26:12;;;;;;;24.38;7.68;;;;;;;-5.06;63.86;99428.19;5014482;28;20055;-63
2022/03/03 02:28:38;;;;;;;23.13;6.97;;;;;;;-5.04;63.92;99429.88;5000694;28;20127;-64
2022/03/03 02:31:04;;;;;;;19.73;7.30;;;;;;;-5.03;63.35;99428.09;5051441;28;20053;-63
2022/03/03 02:33:30;;;;;;;18.60;7.05;;;;;;;-5.09;63.90;99424.75;5001989;28;20448;-65
2022/03/03 02:35:57;;;;;;;18.08;7.25;;;;;;;-5.11;64.31;99426.59;5001722;28;20045;-65
2022/03/03 02:38:23;;;;;;;20.48;7.15;;;;;;;-5.14;63.95;99426.72;5002114;28;20423;-64
2022/03/03 02:40:49;;;;;;;23.55;7.50;;;;;;;-5.11;63.93;99436.28;5002189;28;20072;-65
2022/03/03 02:43:14;;;;;;;22.70;7.15;;;;;;;-5.14;64.27;99425.88;5001824;28;20519;-67
2022/03/03 02:45:40;;;;;;;20.98;7.35;;;;;;;-5.20;63.74;99411.13;5002011;28;20049;-65
2022/03/03 02:48:06;;;;;;;22.52;7.28;;;;;;;-5.20;63.98;99416.41;5017960;28;20068;-64
2022/03/03 02:50:32;;;;;;;23.58;8.10;;;;;;;-5.17;64.36;99421.56;5034557;28;20083;-64
2022/03/03 02:53:01;;;;;;;26.95;8.63;;;;;;;-5.24;64.50;99416.59;5017689;28;20137;-64
2022/03/03 02:55:28;;;;;;;19.13;7.55;;;;;;;-5.27;64.77;99414.91;5002205;28;20523;-64
2022/03/03 02:57:54;;;;;;;25.08;7.85;;;;;;;-5.27;64.41;99414.91;4985085;28;20147;-65
2022/03/03 03:00:25;;;;;;;18.20;6.88;;;;;;;-5.19;63.97;99412.88;5017548;28;20056;-64
2022/03/03 03:02:51;;;;;;;23.13;7.68;;;;;;;-5.23;64.85;99403.38;5034091;28;20493;-64
2022/03/03 03:05:17;;;;;;;22.85;7.88;;;;;;;-5.42;65.40;99383.88;5001398;28;20135;-65
2022/03/03 03:07:43;;;;;;;22.00;7.50;;;;;;;-5.34;65.04;99397.63;5001665;28;20143;-65
2022/03/03 03:10:09;;;;;;;26.88;8.43;;;;;;;-5.43;65.43;99392.72;5034262;28;20124;-65
2022/03/03 03:12:35;;;;;;;25.02;8.23;;;;;;;-5.42;65.21;99397.06;5019808;28;20207;-65
2022/03/03 03:15:00;;;;;;;24.95;8.55;;;;;;;-5.48;66.17;99405.22;5037026;28;20485;-63
2022/03/03 03:17:27;;;;;;;22.15;8.45;;;;;;;-5.55;66.09;99393.19;5037130;28;20504;-65
2022/03/03 03:19:53;;;;;;;20.50;8.00;;;;;;;-5.58;66.74;99400.28;5002624;28;20123;-65
2022/03/03 03:22:19;;;;;;;21.75;7.95;;;;;;;-5.62;66.27;99385.50;5017261;28;20054;-65
2022/03/03 03:24:44;;;;;;;22.55;8.50;;;;;;;-5.69;66.44;99378.75;5050429;28;20110;-65
2022/03/03 03:27:10;;;;;;;19.05;7.35;;;;;;;-5.64;66.24;99384.69;5000735;28;20056;-63
2022/03/03 03:29:36;;;;;;;25.88;8.00;;;;;;;-5.62;65.78;99388.13;5000576;28;20064;-65
2022/03/03 03:32:02;;;;;;;25.30;9.30;;;;;;;-5.71;66.58;99375.31;5000898;28;20052;-65
2022/03/03 03:34:28;;;;;;;22.17;8.32;;;;;;;-5.63;65.85;99385.53;5016970;28;20057;-66
2022/03/03 03:36:54;;;;;;;32.05;9.07;;;;;;;-5.67;66.20;99373.41;4985071;28;20053;-64
2022/03/03 03:39:20;;;;;;;26.00;8.45;;;;;;;-5.67;65.67;99371.63;5016185;28;20063;-65
2022/03/03 03:41:46;;;;;;;26.90;8.30;;;;;;;-5.64;66.03;99368.03;5001469;28;20053;-65
2022/03/03 03:44:12;;;;;;;25.58;8.27;;;;;;;-5.67;66.01;99352.34;5016984;28;20749;-65
2022/03/03 03:46:38;;;;;;;22.67;8.45;;;;;;;-5.64;66.14;99368.03;4984753;28;20060;-67
2022/03/03 03:49:05;;;;;;;32.17;7.63;;;;;;;-5.68;65.81;99372.56;5017207;28;20053;-65
2022/03/03 03:51:31;;;;;;;22.80;7.60;;;;;;;-5.73;66.51;99369.25;5017497;28;20637;-65
2022/03/03 03:53:57;;;;;;;24.15;7.53;;;;;;;-5.81;66.59;99355.53;5017453;28;20218;-67
2022/03/03 03:56:23;;;;;;;21.70;7.20;;;;;;;-5.72;66.10;99359.56;5001974;28;20143;-65
2022/03/03 03:58:50;;;;;;;26.13;7.72;;;;;;;-5.75;66.24;99352.63;5018962;28;20443;-65
2022/03/03 04:01:16;;;;;;;22.90;7.55;;;;;;;-5.88;66.01;99327.72;5003069;28;20040;-65
2022/03/03 04:03:43;;;;;;;26.25;7.80;;;;;;;-5.79;65.76;99353.69;5026054;28;20053;-65
2022/03/03 04:06:09;;;;;;;20.95;7.80;;;;;;;-5.86;66.03;99346.91;5047901;28;20045;-72
2022/03/03 04:08:36;;;;;;;23.92;8.00;;;;;;;-5.79;65.87;99356.31;5015264;28;20056;-66
2022/03/03 04:11:02;;;;;;;26.00;8.32;;;;;;;-6.10;65.85;99302.22;5056276;28;20049;-68
2022/03/03 04:13:29;;;;;;;21.17;7.88;;;;;;;-5.99;66.12;99320.25;5047685;28;20053;-69
2022/03/03 04:15:55;;;;;;;18.45;7.45;;;;;;;-5.88;66.32;99348.75;5044145;28;20048;-67
2022/03/03 04:18:21;;;;;;;22.63;8.02;;;;;;;-5.91;66.93;99362.03;5024148;28;20054;-66
2022/03/03 04:20:47;;;;;;;27.75;8.38;;;;;;;-6.01;66.94;99343.09;4998329;28;20052;-65
2022/03/03 04:23:16;;;;;;;22.42;8.32;;;;;;;-6.01;67.48;99347.50;5005105;28;20052;-66
2022/03/03 04:25:43;;;;;;;24.45;7.43;;;;;;;-6.03;67.94;99346.69;5070189;28;20140;-62
2022/03/03 04:28:09;;;;;;;27.50;6.60;;;;;;;-6.04;67.66;99339.72;5004850;28;20068;-70
2022/03/03 04:30:35;;;;;;;26.65;8.25;;;;;;;-5.95;67.55;99352.56;5022272;28;20052;-64
2022/03/03 04:33:01;;;;;;;22.23;7.22;;;;;;;-5.93;67.88;99350.72;5012364;28;20048;-65
2022/03/03 04:35:27;;;;;;;23.25;6.40;;;;;;;-5.87;67.50;99345.22;5025774;28;22369;-64
2022/03/03 04:37:52;;;;;;;23.52;7.57;;;;;;;-5.90;68.01;99347.94;5012295;28;20117;-65
2022/03/03 04:40:18;;;;;;;24.17;8.23;;;;;;;-5.86;67.27;99341.66;5017801;28;20194;-65
2022/03/03 04:42:44;;;;;;;23.42;6.45;;;;;;;-5.82;67.45;99344.09;5005223;28;20149;-65
2022/03/03 04:45:10;;;;;;;24.58;8.02;;;;;;;-5.83;67.74;99342.41;5021385;28;20059;-65
2022/03/03 04:47:36;;;;;;;25.35;7.65;;;;;;;-5.71;66.64;99345.50;5024665;28;20053;-65
2022/03/03 04:50:03;;;;;;;28.25;9.30;;;;;;;-5.63;66.40;99351.31;5016932;28;20152;-66
2022/03/03 04:52:29;;;;;;;24.98;7.60;;;;;;;-5.59;66.46;99348.53;5011756;28;20041;-64
2022/03/03 04:54:55;;;;;;;24.75;7.93;;;;;;;-5.51;66.69;99347.38;5015656;28;20054;-64
2022/03/03 04:57:21;;;;;;;22.13;7.53;;;;;;;-5.50;66.33;99336.78;5018374;28;20044;-64
2022/03/03 04:59:47;;;;;;;28.25;8.07;;;;;;;-5.34;66.00;99344.94;5004205;28;20052;-65
2022/03/03 05:02:13;;;;;;;22.67;7.85;;;;;;;-5.31;66.04;99343.97;5004167;28;20063;-68
2022/03/03 05:04:39;;;;;;;21.58;8.55;;;;;;;-5.41;65.58;99317.13;4991653;28;20056;-65
2022/03/03 05:07:05;;;;;;;27.20;8.60;;;;;;;-5.23;65.68;99337.50;5012913;28;20053;-64
2022/03/03 05:09:32;;;;;;;24.73;8.80;;;;;;;-5.21;65.40;99330.38;5043494;28;22415;-64
2022/03/03 05:11:59;;;;;;;29.23;8.13;;;;;;;-5.27;65.65;99308.69;5039266;28;20052;-63
2022/03/03 05:14:26;;;;;;;24.00;8.30;;;;;;;-5.09;64.96;99329.88;5022133;28;20049;-64
2022/03/03 05:16:51;;;;;;;25.63;8.15;;;;;;;-5.01;64.66;99326.09;5049768;28;20053;-63
2022/03/03 05:19:18;;;;;;;33.28;7.97;;;;;;;-4.91;64.33;99330.06;5035755;28;20206;-64
2022/03/03 05:21:47;;;;;;;28.38;8.23;;;;;;;-4.88;63.82;99332.59;5021356;28;20523;-64
2022/03/03 05:24:13;;;;;;;29.50;7.47;;;;;;;-4.80;63.56;99327.84;5042589;28;20067;-64
2022/03/03 05:26:39;;;;;;;30.92;8.50;;;;;;;-4.72;62.95;99323.09;5012701;28;20052;-64
2022/03/03 05:29:04;;;;;;;41.38;7.70;;;;;;;-4.58;63.31;99326.97;5010694;28;20191;-63
2022/03/03 05:31:30;;;;;;;22.50;8.32;;;;;;;-4.32;62.70;99321.41;5017817;28;20341;-65
2022/03/03 05:33:56;;;;;;;20.48;7.95;;;;;;;-2.66;58.15;99319.88;5028788;28;20079;-65
2022/03/03 05:36:24;;;;;;;27.42;8.57;;;;;;;-1.35;52.77;99317.41;5043188;28;20095;-66
2022/03/03 05:38:52;;;;;;;25.15;7.93;;;;;;;-0.42;50.19;99305.88;5017793;28;20053;-63
2022/03/03 05:41:18;;;;;;;22.85;7.75;;;;;;;0.15;48.10;99321.94;4983898;28;20397;-65
2022/03/03 05:43:44;;;;;;;26.75;8.32;;;;;;;1.05;46.76;99314.50;5011265;28;20523;-69
2022/03/03 05:46:10;;;;;;;23.15;8.32;;;;;;;2.21;43.87;99322.66;5054321;28;20053;-69
2022/03/03 05:48:36;;;;;;;20.45;7.78;;;;;;;2.81;41.79;99313.09;5034911;28;20069;-66
2022/03/03 05:51:02;;;;;;;24.02;8.82;;;;;;;3.07;40.76;99316.53;5046510;28;20059;-69
2022/03/03 05:53:28;;;;;;;26.88;9.35;;;;;;;2.27;41.42;99306.25;5011679;28;20107;-65
2022/03/03 05:55:57;;;;;;;25.30;7.40;;;;;;;3.37;40.54;99324.13;5015823;28;20479;-66
2022/03/03 05:58:35;;;;;;;30.10;9.38;;;;;;;3.69;39.61;99319.03;5022665;28;20045;-69
2022/03/03 06:01:02;;;;;;;28.83;8.63;;;;;;;3.63;39.30;99320.38;5001095;28;20048;-66
2022/03/03 06:03:30;;;;;;;20.75;8.57;;;;;;;3.19;39.81;99325.50;5047273;28;20139;-71
2022/03/03 06:06:08;;;;;;;31.60;10.30;;;;;;;2.80;39.81;99308.72;5038581;28;20056;-66
2022/03/03 06:08:41;;;;;;;34.55;10.55;;;;;;;3.12;39.90;99312.59;5030052;28;20472;-73
2022/03/03 06:11:15;;;;;;;29.95;9.65;;;;;;;3.65;38.80;99300.69;5034210;28;20060;-73
2022/03/03 06:13:48;;;;;;;26.67;8.75;;;;;;;4.57;37.21;99295.25;5040319;28;20056;-68
2022/03/03 06:16:20;;;;;;;37.40;9.38;;;;;;;5.23;36.09;99292.59;5024100;28;20482;-69
2022/03/03 06:18:48;;;;;;;35.85;9.85;;;;;;;4.74;36.58;99301.06;4999461;28;20060;-71
2022/03/03 06:21:15;;;;;;;34.28;10.98;;;;;;;4.59;36.83;99295.13;5032260;28;20448;-69
2022/03/03 06:23:41;;;;;;;27.83;10.57;;;;;;;5.02;36.24;99289.84;5023187;28;20045;-70
2022/03/03 06:26:08;;;;;;;31.52;9.65;;;;;;;5.34;35.89;99283.69;5029200;28;20390;-66
2022/03/03 06:28:35;;;;;;;32.10;10.25;;;;;;;6.28;34.63;99280.13;5031196;28;20107;-67
2022/03/03 06:31:01;;;;;;;27.70;10.10;;;;;;;6.11;34.34;99277.25;5073115;28;20062;-66
2022/03/03 06:33:27;;;;;;;31.30;10.23;;;;;;;7.22;33.03;99280.75;5025440;28;20131;-65
2022/03/03 06:35:53;;;;;;;25.77;9.40;;;;;;;6.63;33.61;99278.06;5021195;28;20151;-66
2022/03/03 06:38:19;;;;;;;28.15;11.80;;;;;;;5.80;33.90;99277.97;5007123;28;20136;-66
2022/03/03 06:40:45;;;;;;;27.88;11.40;;;;;;;5.55;34.35;99275.66;5022622;28;20516;-66
2022/03/03 06:43:11;;;;;;;32.70;10.77;;;;;;;6.26;33.89;99270.53;5036937;28;20512;-66
2022/03/03 06:45:38;;;;;;;26.92;11.18;;;;;;;6.80;32.43;99263.97;5042916;28;20368;-67
2022/03/03 06:48:04;;;;;;;24.42;10.73;;;;;;;6.99;32.20;99272.09;5024353;28;20080;-70
2022/03/03 06:50:35;;;;;;;19.75;10.10;;;;;;;7.74;30.93;99267.03;4994309;28;20057;-67
2022/03/03 06:53:02;;;;;;;30.38;9.60;;;;;;;8.54;30.22;99267.63;5021458;28;20088;-68
2022/03/03 06:55:30;;;;;;;23.83;10.40;;;;;;;7.77;31.16;99268.59;5045846;28;20107;-67
2022/03/03 06:57:58;;;;;;;24.90;9.93;;;;;;;9.16;30.15;99247.97;5003884;28;20511;-67
2022/03/03 07:00:33;;;;;;;36.65;10.63;;;;;;;9.75;28.50;99255.63;5014455;28;20055;-70
2022/03/03 07:03:01;;;;;;;36.40;10.52;;;;;;;9.66;28.31;99257.41;5005474;28;20072;-68
2022/03/03 07:05:28;;;;;;;28.40;11.02;;;;;;;10.34;27.64;99246.81;5007133;28;20071;-69
2022/03/03 07:07:54;;;;;;;28.52;10.70;;;;;;;11.14;26.35;99248.34;5030604;28;20044;-66
2022/03/03 07:10:25;;;;;;;30.25;11.73;;;;;;;10.02;27.50;99239.31;5027751;28;20048;-66
2022/03/03 07:12:56;;;;;;;28.45;11.15;;;;;;;9.70;28.01;99239.06;5043645;28;20044;-69
2022/03/03 07:15:26;;;;;;;29.55;10.98;;;;;;;9.84;28.11;99242.06;5030883;28;20116;-68
2022/03/03 07:17:56;;;;;;;33.80;12.40;;;;;;;9.92;27.81;99248.53;5030690;28;20055;-71
2022/03/03 07:20:41;;;;;;;30.95;10.05;;;;;;;11.73;26.00;99252.66;5031539;28;20509;-70
2022/03/03 07:23:27;;;;;;;39.33;12.35;;;;;;;10.94;26.57;99245.91;5064075;28;20113;-69
2022/03/03 07:26:01;;;;;;;28.35;11.00;;;;;;;10.84;26.21;99251.44;5024607;28;20084;-70
2022/03/03 07:28:29;;;;;;;27.83;11.75;;;;;;;12.50;25.48;99241.44;5006710;28;20045;-70
2022/03/03 07:30:55;;;;;;;38.90;11.43;;;;;;;11.25;26.00;99242.63;5058017;28;20080;-70
2022/03/03 07:33:37;;;;;;;30.17;11.95;;;;;;;11.14;25.92;99235.66;4990942;28;20056;-70
2022/03/03 07:36:07;;;;;;;36.45;12.70;;;;;;;11.19;25.86;99227.91;5055571;28;20470;-70
2022/03/03 07:38:38;;;;;;;25.52;11.50;;;;;;;12.11;25.39;99223.25;5056427;28;20178;-70
2022/03/03 07:41:04;;;;;;;26.20;12.57;;;;;;;11.65;25.53;99231.00;5031546;28;20591;-70
2022/03/03 07:43:30;;;;;;;29.67;11.50;;;;;;;12.74;24.66;99224.25;5042095;28;20049;-70
2022/03/03 07:45:57;;;;;;;30.75;11.77;;;;;;;12.25;24.85;99225.25;5026119;28;20139;-72
2022/03/03 07:48:24;;;;;;;31.65;11.57;;;;;;;12.74;24.68;99213.41;5007903;28;20048;-69
2022/03/03 07:50:50;;;;;;;30.35;13.02;;;;;;;13.71;23.51;99233.72;5038934;28;20071;-71
2022/03/03 07:53:16;;;;;;;39.47;13.13;;;;;;;14.19;22.96;99198.16;5015914;28;20079;-68
2022/03/03 07:55:44;;;;;;;29.05;12.68;;;;;;;14.58;22.67;99229.69;5010511;28;20110;-70
2022/03/03 07:58:13;;;;;;;26.90;13.02;;;;;;;14.22;22.51;99208.63;5023624;28;20048;-67
2022/03/03 08:00:46;;;;;;;33.38;12.43;;;;;;;14.70;22.97;99229.06;5041843;28;20148;-74
2022/03/03 08:03:16;;;;;;;39.65;11.75;;;;;;;14.36;22.45;99196.06;5036497;28;20052;-75
2022/03/03 08:05:44;;;;;;;29.30;12.20;;;;;;;15.09;21.92;99227.03;5023303;28;20907;-74
2022/03/03 08:08:13;;;;;;;37.10;11.25;;;;;;;14.89;21.83;99210.47;5034027;28;20423;-69
2022/03/03 08:10:41;;;;;;;35.17;12.27;;;;;;;15.36;22.19;99214.56;5050744;28;20139;-72
2022/03/03 08:13:10;;;;;;;34.03;12.57;;;;;;;15.94;21.26;99215.34;5039294;28;20189;-67
2022/03/03 08:15:38;;;;;;;30.92;12.43;;;;;;;16.43;20.64;99203.56;5051631;28;20060;-75
2022/03/03 08:18:04;;;;;;;33.78;13.43;;;;;;;16.60;20.35;99193.16;5047591;28;20111;-71
2022/03/03 08:20:33;;;;;;;33.72;14.43;;;;;;;16.44;20.39;99161.59;5040437;28;20064;-69
2022/03/03 08:23:00;;;;;;;31.20;15.07;;;;;;;14.51;22.36;99175.19;5050395;28;20048;-69
2022/03/03 08:25:26;;;;;;;30.27;14.18;;;;;;;15.06;21.93;99201.00;5002249;28;20072;-68
2022/03/03 08:27:53;;;;;;;30.55;14.13;;;;;;;15.77;22.00;99208.53;4997500;28;20496;-67
2022/03/03 08:30:20;;;;;;;32.35;15.65;;;;;;;15.77;21.13;99203.06;5034321;28;20052;-72
2022/03/03 08:33:13;;;;;;;32.72;13.35;;;;;;;15.55;21.61;99200.31;5037600;28;20084;-69
2022/03/03 08:35:41;;;;;;;33.83;14.30;;;;;;;16.51;20.79;99195.22;4993767;28;20049;-73
2022/03/03 08:38:12;;;;;;;28.17;13.57;;;;;;;17.15;20.46;99190.50;5044587;28;20566;-68
2022/03/03 08:40:37;;;;;;;26.60;14.02;;;;;;;15.75;22.24;99194.22;5029317;28;20124;-72
2022/03/03 08:43:05;;;;;;;32.92;14.00;;;;;;;17.87;19.71;99202.66;5007180;28;20504;-70
2022/03/03 08:45:35;;;;;;;31.73;13.80;;;;;;;18.08;19.63;99186.91;4999364;28;20473;-72
2022/03/03 08:48:10;;;;;;;28.17;13.13;;;;;;;17.50;20.20;99205.75;5036246;28;20036;-70
2022/03/03 08:50:39;;;;;;;34.58;14.63;;;;;;;18.75;18.97;99195.00;5045327;28;20068;-70
2022/03/03 08:53:07;;;;;;;35.95;14.57;;;;;;;19.10;19.29;99201.00;5022149;28;20052;-70
2022/03/03 08:55:34;;;;;;;32.00;14.32;;;;;;;19.44;18.53;99202.50;5012714;28;20049;-71
2022/03/03 08:58:00;;;;;;;40.90;14.30;;;;;;;19.17;19.30;99200.97;5020509;28;20064;-71
2022/03/03 09:00:27;;;;;;;32.17;14.82;;;;;;;20.36;18.10;99193.81;5005477;28;20115;-74
2022/03/03 09:02:53;;;;;;;38.53;16.17;;;;;;;20.04;17.90;99190.28;5044302;28;20044;-73
2022/03/03 09:05:19;;;;;;;31.08;14.65;;;;;;;19.25;18.94;99189.75;5039968;28;20795;-70
2022/03/03 09:07:46;;;;;;;31.15;14.02;;;;;;;19.85;18.35;99187.50;5039447;28;20072;-70
2022/03/03 09:10:12;;;;;;;37.50;13.65;;;;;;;20.12;18.02;99170.81;5053147;28;20044;-71
2022/03/03 09:12:39;;;;;;;33.85;15.70;;;;;;;19.00;18.47;99185.03;5003257;28;20063;-70
2022/03/03 09:15:06;;;;;;;42.10;16.25;;;;;;;18.83;18.92;99183.84;5003151;28;20048;-70
2022/03/03 09:17:33;;;;;;;32.95;15.95;;;;;;;18.37;18.93;99156.56;5022068;28;20064;-71
2022/03/03 09:20:00;;;;;;;42.35;15.60;;;;;;;17.85;20.05;99166.50;5017528;28;20041;-69
2022/03/03 09:22:27;;;;;;;31.27;15.77;;;;;;;18.00;19.84;99178.91;5017987;28;20064;-68
2022/03/03 09:24:54;;;;;;;37.63;16.13;;;;;;;18.79;19.32;99177.09;5034990;28;20045;-68
2022/03/03 09:27:20;;;;;;;30.17;15.27;;;;;;;19.62;18.99;99159.78;5027829;28;20063;-68
2022/03/03 09:29:46;;;;;;;42.67;16.05;;;;;;;18.27;19.73;99163.28;5034157;28;20059;-69
2022/03/03 09:32:13;;;;;;;37.72;15.80;;;;;;;17.65;20.54;99170.03;5010815;28;20053;-68
2022/03/03 09:34:39;;;;;;;43.05;16.45;;;;;;;17.99;20.49;99169.03;5018401;28;20051;-69
2022/03/03 09:37:05;;;;;;;42.53;16.15;;;;;;;18.05;20.04;99170.91;5018794;28;20056;-69
2022/03/03 09:39:31;;;;;;;38.05;13.38;;;;;;;18.45;19.91;99148.94;5037603;28;20092;-68
2022/03/03 09:41:58;;;;;;;37.88;15.52;;;;;;;18.39;19.79;99168.13;5056298;28;20065;-67
2022/03/03 09:44:25;;;;;;;39.80;15.40;;;;;;;19.23;19.85;99167.19;5030236;28;20072;-69
2022/03/03 09:46:52;;;;;;;34.03;14.50;;;;;;;17.10;21.27;99167.38;5001185;28;20044;-70
2022/03/03 09:49:19;;;;;;;39.10;16.48;;;;;;;16.48;22.25;99170.22;5010222;28;20045;-70
2022/03/03 09:51:47;;;;;;;35.10;14.23;;;;;;;16.77;22.30;99177.34;5033851;28;20143;-71
2022/03/03 09:54:14;;;;;;;33.92;15.45;;;;;;;18.53;20.39;99177.97;5023841;28;20500;-69
2022/03/03 09:56:40;;;;;;;39.05;15.05;;;;;;;17.66;21.16;99174.47;5009931;28;20096;-68
2022/03/03 09:59:10;;;;;;;32.15;16.08;;;;;;;16.97;21.68;99172.81;5065555;28;20122;-69
2022/03/03 10:01:36;;;;;;;29.17;15.05;;;;;;;16.91;21.57;99173.63;5021161;28;20155;-69
2022/03/03 10:04:22;;;;;;;31.58;15.25;;;;;;;16.05;22.49;99167.63;5052773;28;20057;-76
2022/03/03 10:06:48;;;;;;;34.85;15.27;;;;;;;15.39;23.41;99168.72;5048614;28;20096;-71
2022/03/03 10:09:18;;;;;;;34.67;15.40;;;;;;;15.67;23.33;99166.06;5075975;28;20052;-75
2022/03/03 10:12:05;;;;;;;;;;;;;;;14.66;24.49;99159.72;5059304;28;20049;-75
2022/03/03 10:14:34;;;;;;;33.72;13.63;;;;;;;15.33;23.84;99155.03;5010277;28;19920;-74
2022/03/03 10:17:06;;;;;;;32.28;13.93;;;;;;;13.85;25.40;99149.72;5068379;28;20552;-73
2022/03/03 10:19:33;;;;;;;30.88;13.68;;;;;;;15.20;23.97;99153.00;5008943;28;20044;-74
2022/03/03 10:21:59;;;;;;;30.52;13.95;;;;;;;15.14;24.05;99130.13;5042701;28;20094;-73
2022/03/03 10:24:27;;;;;;;26.58;12.35;;;;;;;15.73;23.65;99136.38;5037334;28;20093;-74
2022/03/03 10:27:06;;;;;;;31.15;13.35;;;;;;;14.19;25.83;99144.63;5038916;28;20059;-73
2022/03/03 10:29:33;;;;;;;27.60;11.82;;;;;;;14.20;25.62;99143.56;5060010;28;20143;-74
2022/03/03 10:31:59;;;;;;;25.35;10.90;;;;;;;14.52;24.55;99146.97;5066135;28;20052;-74
2022/03/03 10:34:31;;;;;;;27.75;10.43;;;;;;;14.62;24.63;99139.34;5048372;28;20056;-74
2022/03/03 10:37:02;;;;;;;25.02;11.43;;;;;;;12.70;27.04;99139.69;5040363;28;20070;-74
2022/03/03 10:39:38;;;;;;;25.45;11.27;;;;;;;12.54;27.52;99131.59;5038768;28;20052;-73
2022/03/03 10:42:17;;;;;;;25.85;10.50;;;;;;;13.24;26.58;99118.00;5058832;28;20056;-73
2022/03/03 10:44:44;;;;;;;25.23;10.30;;;;;;;12.90;26.77;99133.78;5007109;28;20061;-74
2022/03/03 10:47:13;;;;;;;23.33;11.25;;;;;;;12.70;26.83;99131.53;5038953;28;20049;-73
2022/03/03 10:49:42;;;;;;;22.92;11.07;;;;;;;13.04;26.25;99127.59;5046934;28;20052;-74
2022/03/03 10:52:12;;;;;;;25.30;11.80;;;;;;;13.69;25.53;99132.53;5039798;28;20053;-73
2022/03/03 10:54:58;;;;;;;20.20;10.05;;;;;;;14.66;24.32;99129.81;5071015;28;20049;-73
2022/03/03 10:57:38;;;;;;;25.02;11.30;;;;;;;15.07;23.82;99120.22;5006218;28;20143;-74
2022/03/03 11:00:10;;;;;;;23.23;9.32;;;;;;;15.41;23.45;99116.78;5055032;28;20082;-73
2022/03/03 11:02:44;;;;;;;25.88;11.68;;;;;;;14.02;23.94;99113.19;5047365;28;20056;-73
2022/03/03 11:05:15;;;;;;;20.42;9.40;;;;;;;15.87;22.38;99110.91;5051441;28;20079;-73
2022/03/03 11:07:53;;;;;;;23.15;9.15;;;;;;;15.05;22.92;99116.81;5036168;28;20128;-72
2022/03/03 11:10:36;;;;;;;19.95;9.88;;;;;;;14.85;23.16;99116.63;5053722;28;20056;-73
2022/03/03 11:13:04;;;;;;;23.13;9.70;;;;;;;15.17;22.73;99121.59;5016620;28;20121;-73
2022/03/03 11:15:42;;;;;;;19.42;7.97;;;;;;;14.84;22.59;99114.91;5058676;28;20440;-73
2022/03/03 11:18:29;;;;;;;25.73;9.75;;;;;;;14.62;23.10;99112.16;5055756;28;20070;-72
2022/03/03 11:20:57;;;;;;;20.17;9.55;;;;;;;14.54;23.37;99108.69;5022764;28;20049;-73
2022/03/03 11:23:35;;;;;;;18.27;9.43;;;;;;;15.01;22.65;99107.38;5033877;28;20057;-72
2022/03/03 11:26:03;;;;;;;23.67;8.80;;;;;;;14.76;22.96;99112.31;5006131;28;20574;-72
2022/03/03 11:28:36;;;;;;;21.60;9.00;;;;;;;16.55;21.55;99103.72;5005610;28;20041;-72